CheckWX is a tool to help pilots better visualize weather data.  It is not intended as a substitute for an official pre-flight weather briefing.

16:04:14 UTC

EGGW TAF
London Luton Airport
London, United Kingdom
TAF EGGW 071103Z 0712/0812 26012KT 9999 SCT020 BECMG 0712/0715 20012KT TEMPO 0718/0801 BKN008 BECMG 0720/0723 21020G30KT BECMG 0801/0804 4000 RA BKN008 PROB30 TEMPO 0802/0804 +RA BECMG 0804/0807 28018G28KT 9999 NSW FEW025

Dec-7@
12:00 UTC

Dec-7 @ 12:00 UTC

Dec-8@
12:00 UTC

Dec-8 @ 12:00 UTC

TAF EGGW 071103Z 0712/0812 26012KT 9999 SCT020
Wind
  • 260° at 12 KTS
Cloud Levels
  • Scattered at 2,000' AGL

Dec-7@
12:00 UTC

Dec-7 @ 12:00 UTC

Dec-7@
20:00 UTC

Dec-7 @ 20:00 UTC

BECMG 0712/0715 20012KT

Becoming

Becoming Conditions expected by Sat, Dec 7, 2019 @ 15:00 UTC

Wind
  • 200° at 12 KTS
Cloud Levels
  • Scattered at 2,000' AGL

Dec-7@
18:00 UTC

Dec-7 @ 18:00 UTC

Dec-8@
01:00 UTC

Dec-8 @ 01:00 UTC

TEMPO 0718/0801 BKN008

Temporary

Temporary Changes expected for less than half the time period

Cloud Levels
  • Broken at 800' AGL

Dec-7@
20:00 UTC

Dec-7 @ 20:00 UTC

Dec-8@
01:00 UTC

Dec-8 @ 01:00 UTC

BECMG 0720/0723 21020G30KT

Becoming

Becoming Conditions expected by Sat, Dec 7, 2019 @ 23:00 UTC

Wind
  • 210° at 20 KTS
  • {Gusting to 30 KTS
Cloud Levels
  • Scattered at 2,000' AGL

Dec-8@
01:00 UTC

Dec-8 @ 01:00 UTC

Dec-8@
04:00 UTC

Dec-8 @ 04:00 UTC

BECMG 0801/0804 4000 RA BKN008

Becoming

Becoming Conditions expected by Sun, Dec 8, 2019 @ 04:00 UTC

Wind
  • 210° at 20 KTS
  • {Gusting to 30 KTS
Conditions
Rain
Cloud Levels
  • Broken at 800' AGL

Dec-8@
02:00 UTC

Dec-8 @ 02:00 UTC

Dec-8@
04:00 UTC

Dec-8 @ 04:00 UTC

PROB30 TEMPO 0802/0804 +RA

Temporary - 30% Likelihood

Temporary - 30% Likelihood during this time.

Conditions
Heavy Rain

Dec-8@
04:00 UTC

Dec-8 @ 04:00 UTC

Dec-8@
12:00 UTC

Dec-8 @ 12:00 UTC

BECMG 0804/0807 28018G28KT 9999 NSW FEW025

Becoming

Becoming Conditions expected by Sun, Dec 8, 2019 @ 07:00 UTC

Wind
  • 280° at 18 KTS
  • {Gusting to 28 KTS
Conditions
No significant weather
Cloud Levels
  • Few at 2,500' AGL